Time;durP1;ratioP1;P1;durP2;ratioP2;P2;SDS_P1;SDS_P2;PMS_P1;PMS_P2;Temp;Humidity;BMP_temperature;BMP_pressure;BME280_temperature;BME280_humidity;BME280_pressure;Samples;Min_cycle;Max_cycle;Signal;HPM_P1;HPM_P2
2024/04/02 00:00:44;;;;;;;8.60;1.88;;;10.10;99.90;;;;;;5022409;28;20411;-71
2024/04/02 00:03:11;;;;;;;16.15;2.22;;;10.10;99.90;;;;;;5028694;28;20071;-71
2024/04/02 00:05:38;;;;;;;12.23;2.00;;;10.10;99.90;;;;;;5025394;28;20053;-71
2024/04/02 00:08:05;;;;;;;15.93;3.53;;;10.10;99.90;;;;;;5022623;28;20045;-71
2024/04/02 00:10:31;;;;;;;11.18;1.92;;;10.10;99.90;;;;;;5022849;28;20052;-71
2024/04/02 00:12:57;;;;;;;12.43;1.80;;;10.10;99.90;;;;;;5023668;28;20484;-71
2024/04/02 00:15:23;;;;;;;19.00;2.85;;;10.10;99.90;;;;;;5010719;28;20049;-71
2024/04/02 00:17:49;;;;;;;12.02;1.50;;;10.10;99.90;;;;;;5019886;28;20050;-71
2024/04/02 00:20:15;;;;;;;13.85;2.30;;;10.10;99.90;;;;;;5019955;28;20072;-72
2024/04/02 00:22:41;;;;;;;14.45;3.22;;;10.00;99.90;;;;;;5024751;28;20060;-71
2024/04/02 00:25:06;;;;;;;10.98;1.83;;;10.00;99.90;;;;;;5011274;28;20095;-72
2024/04/02 00:27:32;;;;;;;15.65;2.60;;;10.00;99.90;;;;;;5005320;28;20120;-72
2024/04/02 00:29:58;;;;;;;11.68;2.15;;;10.00;99.90;;;;;;5020948;28;20053;-71
2024/04/02 00:32:24;;;;;;;21.05;2.65;;;10.00;99.90;;;;;;5023532;28;20055;-71
2024/04/02 00:34:50;;;;;;;12.65;1.58;;;10.00;99.90;;;;;;5027847;28;20495;-71
2024/04/02 00:37:16;;;;;;;15.05;2.15;;;9.90;99.90;;;;;;5025170;28;20053;-71
2024/04/02 00:39:45;;;;;;;11.02;2.08;;;9.90;99.90;;;;;;5026983;28;20048;-71
2024/04/02 00:42:11;;;;;;;13.90;2.28;;;9.90;99.90;;;;;;5025882;28;20064;-71
2024/04/02 00:44:37;;;;;;;12.63;3.05;;;9.90;99.90;;;;;;5022538;28;20056;-71
2024/04/02 00:47:07;;;;;;;12.68;2.50;;;9.90;99.90;;;;;;5020970;28;20495;-71
2024/04/02 00:49:33;;;;;;;15.05;4.45;;;9.90;99.90;;;;;;5026161;28;20045;-72
2024/04/02 00:52:00;;;;;;;18.15;2.15;;;9.90;99.90;;;;;;5014110;28;20747;-72
2024/04/02 00:54:25;;;;;;;9.93;1.63;;;9.90;99.90;;;;;;4995667;28;20064;-71
2024/04/02 00:56:51;;;;;;;8.98;1.80;;;9.90;99.90;;;;;;5006546;28;20120;-71
2024/04/02 00:59:17;;;;;;;18.48;2.72;;;9.90;99.90;;;;;;5002603;28;20049;-70
2024/04/02 01:01:43;;;;;;;12.98;2.17;;;9.90;99.90;;;;;;5012173;28;20075;-70
2024/04/02 01:04:10;;;;;;;11.18;2.15;;;9.90;99.90;;;;;;5003694;28;20476;-71
2024/04/02 01:06:36;;;;;;;9.35;2.05;;;9.90;99.90;;;;;;5011553;28;20052;-71
2024/04/02 01:09:04;;;;;;;9.93;2.15;;;9.90;99.90;;;;;;5018612;28;20049;-71
2024/04/02 01:11:29;;;;;;;11.25;2.38;;;9.90;99.90;;;;;;5026332;28;20048;-71
2024/04/02 01:13:55;;;;;;;15.30;1.92;;;9.90;99.90;;;;;;5007859;28;20056;-70
2024/04/02 01:16:21;;;;;;;11.52;1.98;;;9.90;99.90;;;;;;5002964;28;20558;-71
2024/04/02 01:18:47;;;;;;;8.80;1.52;;;9.90;99.90;;;;;;5006942;28;20132;-71
2024/04/02 01:21:22;;;;;;;14.35;2.40;;;9.90;99.90;;;;;;5023597;28;20128;-71
2024/04/02 01:23:48;;;;;;;16.58;2.03;;;10.00;99.90;;;;;;5021121;28;20053;-71
2024/04/02 01:26:13;;;;;;;16.77;1.92;;;10.00;99.90;;;;;;5023109;28;20514;-71
2024/04/02 01:28:39;;;;;;;15.18;3.53;;;10.00;99.90;;;;;;5025198;28;20061;-70
2024/04/02 01:31:05;;;;;;;16.00;3.60;;;10.00;99.90;;;;;;5018891;28;20053;-71
2024/04/02 01:33:31;;;;;;;13.32;1.65;;;10.00;99.90;;;;;;5019155;28;20060;-70
2024/04/02 01:35:57;;;;;;;12.63;1.63;;;10.00;99.90;;;;;;4992923;28;20551;-70
2024/04/02 01:38:23;;;;;;;12.93;2.10;;;9.90;99.90;;;;;;5023486;28;20052;-71
2024/04/02 01:40:49;;;;;;;14.73;2.13;;;9.90;99.90;;;;;;5023131;28;20489;-71
2024/04/02 01:43:15;;;;;;;16.05;4.47;;;9.90;99.90;;;;;;5017600;28;20095;-70
2024/04/02 01:45:41;;;;;;;3.78;1.45;;;9.90;99.90;;;;;;5023028;28;20416;-70
2024/04/02 01:48:07;;;;;;;8.32;1.63;;;9.80;99.90;;;;;;5021076;28;20051;-70
2024/04/02 01:50:32;;;;;;;12.45;1.77;;;9.70;99.90;;;;;;5024607;28;20071;-69
2024/04/02 01:52:58;;;;;;;7.63;1.08;;;9.60;99.90;;;;;;5026823;28;20040;-71
2024/04/02 01:55:25;;;;;;;6.47;1.35;;;9.50;99.90;;;;;;5008896;28;20053;-70
2024/04/02 01:57:50;;;;;;;15.50;3.45;;;9.50;99.90;;;;;;5024126;28;20483;-69
2024/04/02 02:00:17;;;;;;;4.15;1.10;;;9.50;99.90;;;;;;5021520;28;20098;-69
2024/04/02 02:02:43;;;;;;;12.35;1.73;;;9.50;99.90;;;;;;5031656;28;20053;-69
2024/04/02 02:05:09;;;;;;;5.68;1.30;;;9.40;99.90;;;;;;4995271;28;20115;-69
2024/04/02 02:07:35;;;;;;;5.80;1.30;;;9.40;99.90;;;;;;5003688;28;20049;-68
2024/04/02 02:10:01;;;;;;;9.52;1.75;;;9.40;99.90;;;;;;5021829;28;20063;-69
2024/04/02 02:12:26;;;;;;;9.77;2.10;;;9.40;99.90;;;;;;5023519;28;20423;-68
2024/04/02 02:14:53;;;;;;;11.60;1.75;;;9.40;99.90;;;;;;5023139;28;20099;-68
2024/04/02 02:17:18;;;;;;;12.55;1.98;;;9.40;99.90;;;;;;5024768;28;20045;-69
2024/04/02 02:19:44;;;;;;;16.02;2.15;;;9.50;99.90;;;;;;5022924;28;20469;-69
2024/04/02 02:22:10;;;;;;;13.60;2.00;;;9.50;99.90;;;;;;5006874;28;20056;-69
2024/04/02 02:24:36;;;;;;;15.27;2.40;;;9.40;99.90;;;;;;5024657;28;20499;-69
2024/04/02 02:27:02;;;;;;;16.95;1.67;;;9.40;99.90;;;;;;5003346;28;20056;-69
2024/04/02 02:29:28;;;;;;;13.82;2.58;;;9.30;99.90;;;;;;5023140;28;20057;-69
2024/04/02 02:31:57;;;;;;;11.25;1.83;;;9.30;99.90;;;;;;5023224;28;20047;-69
2024/04/02 02:34:23;;;;;;;10.07;1.90;;;9.30;99.90;;;;;;5024696;28;20049;-69
2024/04/02 02:36:50;;;;;;;11.93;1.63;;;9.30;99.90;;;;;;5006165;28;20543;-69
2024/04/02 02:39:16;;;;;;;13.75;2.50;;;9.30;99.90;;;;;;5040863;28;20656;-68
2024/04/02 02:41:45;;;;;;;15.07;2.47;;;9.30;99.90;;;;;;5019111;28;20056;-69
2024/04/02 02:44:10;;;;;;;12.35;2.20;;;9.30;99.90;;;;;;5014619;28;20521;-69
2024/04/02 02:46:36;;;;;;;19.92;3.25;;;9.30;99.90;;;;;;5026246;28;20053;-70
2024/04/02 02:49:02;;;;;;;22.58;2.75;;;9.30;99.90;;;;;;5012503;28;20056;-69
2024/04/02 02:51:28;;;;;;;18.80;2.60;;;9.30;99.90;;;;;;5008828;28;20092;-68
2024/04/02 02:53:54;;;;;;;34.63;5.40;;;9.30;99.90;;;;;;5010530;28;20601;-68
2024/04/02 02:56:19;;;;;;;17.42;2.38;;;9.30;99.90;;;;;;5024053;28;20136;-68
2024/04/02 02:58:46;;;;;;;14.57;2.53;;;9.30;99.90;;;;;;5026019;28;20049;-67
2024/04/02 03:01:11;;;;;;;12.40;2.20;;;9.30;99.90;;;;;;5027655;28;20494;-68
2024/04/02 03:03:37;;;;;;;19.90;2.72;;;9.30;99.90;;;;;;5027795;28;20056;-68
2024/04/02 03:06:03;;;;;;;7.03;1.60;;;9.30;99.90;;;;;;5025722;28;20042;-69
2024/04/02 03:08:29;;;;;;;18.25;2.33;;;9.30;99.90;;;;;;5027764;28;20063;-69
2024/04/02 03:11:03;;;;;;;16.65;2.72;;;9.30;99.90;;;;;;5025912;28;20053;-69
2024/04/02 03:13:32;;;;;;;;;;;9.30;99.90;;;;;;5027867;28;20495;-70
2024/04/02 03:15:58;;;;;;;17.75;3.22;;;9.30;99.90;;;;;;5011507;28;20604;-70
2024/04/02 03:18:24;;;;;;;10.45;2.38;;;9.20;99.90;;;;;;5013284;28;20049;-67
2024/04/02 03:20:50;;;;;;;8.00;1.90;;;9.20;99.90;;;;;;5025006;28;21711;-68
2024/04/02 03:23:16;;;;;;;5.65;1.30;;;9.20;99.90;;;;;;5022833;28;20068;-68
2024/04/02 03:25:45;;;;;;;9.05;1.45;;;9.20;99.90;;;;;;5018740;28;20052;-68
2024/04/02 03:28:11;;;;;;;13.55;2.47;;;9.20;99.90;;;;;;5005112;28;20080;-68
2024/04/02 03:30:37;;;;;;;10.73;3.85;;;9.20;99.90;;;;;;5026591;28;20061;-69
2024/04/02 03:33:03;;;;;;;9.65;1.50;;;9.20;99.90;;;;;;5020910;28;20045;-68
2024/04/02 03:35:28;;;;;;;13.38;2.13;;;9.20;99.90;;;;;;5027971;28;20094;-68
2024/04/02 03:37:54;;;;;;;9.82;1.55;;;9.10;99.90;;;;;;5007349;28;20044;-68
2024/04/02 03:40:20;;;;;;;9.63;1.95;;;9.10;99.90;;;;;;5023585;28;20139;-68
2024/04/02 03:42:46;;;;;;;9.10;1.42;;;9.00;99.90;;;;;;5023192;28;20064;-68
2024/04/02 03:45:12;;;;;;;6.15;1.00;;;9.00;99.90;;;;;;5029636;28;20585;-68
2024/04/02 03:47:37;;;;;;;3.70;0.77;;;8.90;99.90;;;;;;5022372;28;20059;-68
2024/04/02 03:50:03;;;;;;;6.20;1.63;;;8.80;99.90;;;;;;5028424;28;20049;-68
2024/04/02 03:52:29;;;;;;;9.48;1.65;;;8.80;99.90;;;;;;5025204;28;20098;-68
2024/04/02 03:54:55;;;;;;;5.78;1.05;;;8.70;99.90;;;;;;5027406;28;20049;-68
2024/04/02 03:57:21;;;;;;;3.75;1.00;;;8.70;99.90;;;;;;5027960;28;20057;-67
2024/04/02 03:59:47;;;;;;;6.13;0.70;;;8.60;99.90;;;;;;5020558;28;20106;-67
2024/04/02 04:02:12;;;;;;;4.00;0.50;;;8.50;99.90;;;;;;5038204;28;20135;-67
2024/04/02 04:04:38;;;;;;;1.85;0.50;;;8.50;99.90;;;;;;5001675;28;20049;-68
2024/04/02 04:07:07;;;;;;;5.10;0.60;;;8.50;99.90;;;;;;5028471;28;20049;-68
2024/04/02 04:09:33;;;;;;;5.88;1.00;;;8.60;99.90;;;;;;5025840;28;20100;-68
2024/04/02 04:11:59;;;;;;;4.82;0.80;;;8.50;99.90;;;;;;5026622;28;20080;-68
2024/04/02 04:14:25;;;;;;;5.68;0.93;;;8.50;99.90;;;;;;5007886;28;20458;-68
2024/04/02 04:16:50;;;;;;;6.10;1.67;;;8.50;99.90;;;;;;5020950;28;20103;-67
2024/04/02 04:19:16;;;;;;;6.38;1.23;;;8.50;99.90;;;;;;5019572;28;20143;-67
2024/04/02 04:21:42;;;;;;;12.23;1.92;;;8.60;99.90;;;;;;5024348;28;20178;-67
2024/04/02 04:24:08;;;;;;;11.88;2.35;;;8.60;99.90;;;;;;5020770;28;20610;-68
2024/04/02 04:26:33;;;;;;;17.02;4.28;;;8.70;99.90;;;;;;5018811;28;20053;-69
2024/04/02 04:28:59;;;;;;;18.95;3.15;;;8.80;99.90;;;;;;5023606;28;20137;-67
2024/04/02 04:31:25;;;;;;;21.55;2.50;;;8.80;99.90;;;;;;5021436;28;20136;-67
2024/04/02 04:33:51;;;;;;;24.83;3.20;;;8.90;99.90;;;;;;5018926;28;20408;-68
2024/04/02 04:36:17;;;;;;;13.60;2.40;;;8.90;99.90;;;;;;5019720;28;20067;-68
2024/04/02 04:38:44;;;;;;;26.15;3.20;;;9.00;99.90;;;;;;5028769;28;20049;-68
2024/04/02 04:41:09;;;;;;;16.90;2.35;;;9.00;99.90;;;;;;5003864;28;20057;-67
2024/04/02 04:43:35;;;;;;;16.48;3.03;;;9.00;99.90;;;;;;5026369;28;20053;-67
2024/04/02 04:46:01;;;;;;;20.60;2.92;;;9.00;99.90;;;;;;5006267;28;20502;-67
2024/04/02 04:48:27;;;;;;;19.98;5.00;;;9.00;99.90;;;;;;5024403;28;20052;-67
2024/04/02 04:50:56;;;;;;;19.42;3.90;;;9.00;99.90;;;;;;5022097;28;20411;-68
2024/04/02 04:53:21;;;;;;;20.65;4.93;;;9.10;99.90;;;;;;5026509;28;20385;-68
2024/04/02 04:55:47;;;;;;;36.08;3.13;;;9.10;99.90;;;;;;5021712;28;20106;-68
2024/04/02 04:58:13;;;;;;;17.23;3.08;;;9.10;99.90;;;;;;5025765;28;20052;-67
2024/04/02 05:00:39;;;;;;;11.35;2.42;;;9.10;99.90;;;;;;5022026;28;20467;-68
2024/04/02 05:03:05;;;;;;;19.38;3.00;;;9.20;99.90;;;;;;5022452;28;20144;-68
2024/04/02 05:05:33;;;;;;;11.68;2.03;;;9.10;99.90;;;;;;5019914;28;20045;-69
2024/04/02 05:08:21;;;;;;;17.23;2.63;;;9.10;99.90;;;;;;5025734;28;20167;-68
2024/04/02 05:10:47;;;;;;;18.95;2.70;;;9.10;99.90;;;;;;5007323;28;20045;-68
2024/04/02 05:13:14;;;;;;;10.18;2.42;;;9.10;99.90;;;;;;5023410;28;20053;-68
2024/04/02 05:15:40;;;;;;;17.27;2.08;;;9.10;99.90;;;;;;5025336;28;20060;-68
2024/04/02 05:18:07;;;;;;;13.38;3.10;;;9.10;99.90;;;;;;5021615;28;20598;-68
2024/04/02 05:20:33;;;;;;;13.23;2.50;;;9.20;99.90;;;;;;5022479;28;20042;-68
2024/04/02 05:22:58;;;;;;;12.57;3.88;;;9.20;99.90;;;;;;5025001;28;20397;-69
2024/04/02 05:25:24;;;;;;;15.60;3.90;;;9.20;99.90;;;;;;5024068;28;20050;-69
2024/04/02 05:27:50;;;;;;;16.55;2.58;;;9.20;99.90;;;;;;5025357;28;20568;-66
2024/04/02 05:30:16;;;;;;;13.63;2.60;;;9.20;99.90;;;;;;5005032;28;20057;-67
2024/04/02 05:32:42;;;;;;;15.32;2.42;;;9.20;99.90;;;;;;5010849;28;20501;-66
2024/04/02 05:35:08;;;;;;;11.07;2.00;;;9.20;99.90;;;;;;4999455;28;20556;-67
2024/04/02 05:37:36;;;;;;;9.30;1.90;;;9.30;99.90;;;;;;4984022;28;20053;-67
2024/04/02 05:40:07;;;;;;;15.85;2.38;;;9.30;99.90;;;;;;4999316;28;20049;-68
2024/04/02 05:42:33;;;;;;;16.42;2.42;;;9.30;99.90;;;;;;4993733;28;20050;-68
2024/04/02 05:44:59;;;;;;;12.27;1.77;;;9.30;99.90;;;;;;4998328;28;20050;-68
2024/04/02 05:47:25;;;;;;;19.02;2.95;;;9.30;99.90;;;;;;4996698;28;20479;-68
2024/04/02 05:49:51;;;;;;;19.33;2.63;;;9.30;99.90;;;;;;4982406;28;20042;-68
2024/04/02 05:52:16;;;;;;;14.93;2.10;;;9.30;99.90;;;;;;5001759;28;20329;-68
2024/04/02 05:54:42;;;;;;;12.20;2.28;;;9.30;99.90;;;;;;5000255;28;20133;-68
2024/04/02 05:57:08;;;;;;;15.57;3.15;;;9.30;99.90;;;;;;4983471;28;20065;-68
2024/04/02 05:59:34;;;;;;;13.73;2.53;;;9.30;99.90;;;;;;4973938;28;20581;-68
2024/04/02 06:02:00;;;;;;;11.02;2.20;;;9.40;99.90;;;;;;5001538;28;20049;-68
2024/04/02 06:04:26;;;;;;;17.02;2.47;;;9.40;99.90;;;;;;4982075;28;20529;-68
2024/04/02 06:06:51;;;;;;;21.00;3.00;;;9.40;99.90;;;;;;4976471;28;20046;-68
2024/04/02 06:09:19;;;;;;;15.35;2.30;;;9.30;99.90;;;;;;4650481;28;10000377;-68
2024/04/02 06:11:45;;;;;;;17.33;2.65;;;9.30;99.90;;;;;;4980231;28;20046;-68
2024/04/02 06:14:11;;;;;;;12.00;2.53;;;9.40;99.90;;;;;;4995179;28;20053;-68
2024/04/02 06:16:37;;;;;;;8.00;1.83;;;9.40;99.90;;;;;;4997512;28;20111;-69
2024/04/02 06:19:03;;;;;;;14.43;2.50;;;9.30;99.90;;;;;;5000973;28;20060;-68
2024/04/02 06:21:29;;;;;;;11.95;2.67;;;9.30;99.90;;;;;;4984674;28;20054;-68
2024/04/02 06:23:55;;;;;;;9.82;1.92;;;9.40;99.90;;;;;;4998189;28;20061;-69
2024/04/02 06:26:21;;;;;;;11.63;1.80;;;9.40;99.90;;;;;;5002350;28;20124;-69
2024/04/02 06:28:47;;;;;;;14.90;1.98;;;9.30;99.90;;;;;;4997403;28;20489;-69
2024/04/02 06:31:13;;;;;;;11.25;2.28;;;9.40;99.90;;;;;;4983850;28;20065;-68
2024/04/02 06:33:39;;;;;;;10.15;1.42;;;9.40;99.90;;;;;;4987405;28;20118;-68
2024/04/02 06:36:05;;;;;;;13.60;2.15;;;9.40;99.90;;;;;;5005635;28;20049;-67
2024/04/02 06:38:30;;;;;;;9.77;2.03;;;9.40;99.90;;;;;;5001612;28;20064;-68
2024/04/02 06:40:56;;;;;;;8.52;1.52;;;9.40;99.90;;;;;;4997016;28;20116;-67
2024/04/02 06:43:23;;;;;;;11.13;1.65;;;9.50;99.90;;;;;;4985046;28;20485;-68
2024/04/02 06:45:55;;;;;;;15.13;1.77;;;9.60;99.90;;;;;;5000109;28;20105;-68
2024/04/02 06:48:22;;;;;;;10.35;2.00;;;9.60;99.90;;;;;;4971184;28;20046;-67
2024/04/02 06:50:58;;;;;;;6.25;1.15;;;9.60;99.90;;;;;;4994852;28;20165;-69
2024/04/02 06:53:25;;;;;;;10.13;1.38;;;9.60;99.90;;;;;;5001363;28;20050;-66
2024/04/02 06:55:51;;;;;;;3.17;1.15;;;9.60;99.90;;;;;;4985331;28;20056;-69
2024/04/02 06:58:17;;;;;;;8.85;1.42;;;9.60;99.90;;;;;;5002362;28;20429;-64
2024/04/02 07:00:44;;;;;;;6.05;2.58;;;9.60;99.90;;;;;;4980085;28;20079;-69
2024/04/02 07:03:17;;;;;;;7.60;1.40;;;9.60;99.90;;;;;;4980938;28;20847;-70
2024/04/02 07:05:43;;;;;;;6.40;1.10;;;9.60;99.90;;;;;;4996598;28;20112;-70
2024/04/02 07:08:09;;;;;;;6.32;0.90;;;9.60;99.90;;;;;;5004446;28;20984;-71
2024/04/02 07:10:35;;;;;;;4.57;1.10;;;9.60;99.90;;;;;;4981692;28;20421;-70
2024/04/02 07:13:01;;;;;;;5.32;0.95;;;9.60;99.90;;;;;;4985051;28;20049;-70
2024/04/02 07:15:27;;;;;;;5.78;1.00;;;9.60;99.90;;;;;;4995160;28;20105;-69
2024/04/02 07:17:53;;;;;;;4.30;0.80;;;9.60;99.90;;;;;;4998956;28;20058;-71
2024/04/02 07:20:19;;;;;;;3.40;0.70;;;9.70;99.90;;;;;;4979753;28;20053;-71
2024/04/02 07:22:45;;;;;;;2.35;0.90;;;9.70;99.90;;;;;;4988971;28;20716;-69
2024/04/02 07:25:11;;;;;;;6.93;1.83;;;9.70;99.90;;;;;;4996114;28;20053;-68
2024/04/02 07:27:37;;;;;;;3.80;0.85;;;9.60;99.90;;;;;;4999444;28;20108;-69
2024/04/02 07:30:04;;;;;;;5.05;0.80;;;9.70;99.90;;;;;;5013961;28;20050;-69
2024/04/02 07:32:30;;;;;;;3.85;1.17;;;9.80;99.90;;;;;;4999682;28;20053;-69
2024/04/02 07:34:59;;;;;;;5.03;1.15;;;9.80;99.90;;;;;;4999750;28;20128;-69
2024/04/02 07:37:25;;;;;;;4.05;1.15;;;9.80;99.90;;;;;;5017446;28;20115;-69
2024/04/02 07:39:51;;;;;;;2.03;0.75;;;9.80;99.90;;;;;;5017037;28;20068;-69
2024/04/02 07:42:17;;;;;;;3.83;0.70;;;9.80;99.90;;;;;;5013816;28;20066;-70
2024/04/02 07:44:43;;;;;;;2.83;0.70;;;9.70;99.90;;;;;;5021888;28;20049;-70
2024/04/02 07:47:09;;;;;;;3.80;0.68;;;9.60;99.90;;;;;;5019295;28;20132;-71
2024/04/02 07:49:35;;;;;;;1.55;0.60;;;9.70;99.90;;;;;;5017589;28;20144;-70
2024/04/02 07:52:00;;;;;;;4.70;0.88;;;9.60;99.90;;;;;;5011699;28;20056;-70
2024/04/02 07:54:26;;;;;;;3.10;0.70;;;9.60;99.90;;;;;;5005806;28;20136;-71
2024/04/02 07:56:55;;;;;;;1.25;0.77;;;9.60;99.90;;;;;;5016936;28;20055;-70
2024/04/02 07:59:21;;;;;;;3.72;0.70;;;9.70;99.90;;;;;;5031429;28;20705;-71
2024/04/02 08:01:47;;;;;;;2.97;1.13;;;9.70;99.90;;;;;;5019384;28;20741;-70
2024/04/02 08:04:13;;;;;;;2.95;0.88;;;9.80;99.90;;;;;;5000841;28;20054;-70
2024/04/02 08:06:39;;;;;;;16.83;1.80;;;10.00;99.90;;;;;;5018123;28;20077;-70
2024/04/02 08:09:05;;;;;;;10.52;1.00;;;10.00;99.90;;;;;;5013905;28;20045;-70
2024/04/02 08:11:31;;;;;;;18.73;1.67;;;10.00;99.90;;;;;;5003242;28;20061;-70
2024/04/02 08:13:56;;;;;;;42.42;4.25;;;9.90;99.90;;;;;;5013648;28;20049;-70
2024/04/02 08:16:24;;;;;;;10.18;0.95;;;9.90;99.90;;;;;;5017251;28;20642;-70
2024/04/02 08:18:49;;;;;;;3.45;1.00;;;9.90;99.90;;;;;;5013249;28;20475;-71
2024/04/02 08:21:15;;;;;;;3.65;0.95;;;9.90;99.90;;;;;;5015859;28;20130;-72
2024/04/02 08:23:41;;;;;;;4.78;1.15;;;10.00;99.90;;;;;;4998314;28;20050;-70
2024/04/02 08:26:07;;;;;;;2.28;0.70;;;10.00;99.90;;;;;;5014286;28;20505;-70
2024/04/02 08:28:33;;;;;;;4.20;0.80;;;10.10;99.90;;;;;;5017193;28;20056;-70
2024/04/02 08:30:59;;;;;;;7.28;0.90;;;10.10;99.90;;;;;;5002569;28;20071;-70
2024/04/02 08:33:28;;;;;;;8.35;1.27;;;10.10;99.90;;;;;;5031222;28;20381;-71
2024/04/02 08:35:54;;;;;;;4.10;0.77;;;10.20;99.90;;;;;;5018606;28;20049;-71
2024/04/02 08:38:19;;;;;;;4.93;1.13;;;10.10;99.90;;;;;;5020952;28;21320;-71
2024/04/02 08:40:50;;;;;;;4.97;1.95;;;10.20;99.90;;;;;;5021204;28;20045;-71
2024/04/02 08:43:16;;;;;;;6.45;1.60;;;10.20;99.90;;;;;;4995937;28;20053;-71
2024/04/02 08:45:45;;;;;;;8.05;1.75;;;10.40;99.90;;;;;;5018698;28;20060;-71
2024/04/02 08:48:11;;;;;;;4.90;1.40;;;10.30;99.90;;;;;;5016423;28;20056;-72
2024/04/02 08:50:40;;;;;;;6.00;1.05;;;10.30;99.90;;;;;;5020820;28;20053;-71
2024/04/02 08:53:06;;;;;;;5.13;1.20;;;10.30;99.90;;;;;;5012488;28;20057;-71
2024/04/02 08:55:33;;;;;;;15.70;1.27;;;10.30;99.90;;;;;;5023644;28;20049;-71
2024/04/02 08:57:59;;;;;;;6.07;1.42;;;10.40;99.90;;;;;;5000510;28;20060;-72
2024/04/02 09:00:24;;;;;;;4.82;1.15;;;10.40;99.90;;;;;;5021853;28;20045;-70
2024/04/02 09:02:53;;;;;;;5.57;1.63;;;10.30;99.90;;;;;;4999392;28;20065;-72
2024/04/02 09:05:19;;;;;;;4.93;1.38;;;10.40;99.90;;;;;;5022359;28;20495;-72
2024/04/02 09:07:45;;;;;;;3.65;1.02;;;10.50;99.90;;;;;;5035763;28;20077;-74
2024/04/02 09:10:11;;;;;;;6.35;1.20;;;10.70;99.90;;;;;;5013170;28;20387;-72
2024/04/02 09:12:38;;;;;;;4.05;1.10;;;10.70;99.90;;;;;;5021406;28;20165;-71
2024/04/02 09:15:05;;;;;;;9.07;1.42;;;10.70;99.90;;;;;;5018650;28;20064;-72
2024/04/02 09:17:31;;;;;;;5.15;1.42;;;10.90;99.90;;;;;;5007543;28;20056;-72
2024/04/02 09:19:57;;;;;;;4.82;1.13;;;11.10;99.90;;;;;;5016957;28;20053;-71
2024/04/02 09:22:23;;;;;;;1.95;0.85;;;11.20;99.90;;;;;;5018515;28;20415;-71
2024/04/02 09:24:49;;;;;;;4.53;0.80;;;11.10;99.90;;;;;;5020638;28;20588;-72
2024/04/02 09:27:16;;;;;;;7.40;1.33;;;11.10;99.90;;;;;;5021246;28;20060;-71
2024/04/02 09:29:42;;;;;;;6.93;1.00;;;11.30;99.90;;;;;;5002199;28;20500;-73
2024/04/02 09:32:08;;;;;;;3.30;0.75;;;11.30;99.90;;;;;;5006181;28;20057;-73
2024/04/02 09:34:37;;;;;;;3.60;0.90;;;11.30;99.90;;;;;;5021884;28;20047;-72
2024/04/02 09:37:15;;;;;;;2.67;0.90;;;11.30;99.90;;;;;;5007890;28;20144;-73
2024/04/02 09:39:41;;;;;;;4.05;1.05;;;11.40;99.90;;;;;;5017715;28;20144;-74
2024/04/02 09:42:09;;;;;;;13.10;1.20;;;11.40;99.90;;;;;;5003047;28;20750;-73
2024/04/02 09:44:35;;;;;;;9.02;2.17;;;11.50;99.90;;;;;;4997587;28;20058;-72
2024/04/02 09:47:01;;;;;;;2.83;1.00;;;11.60;99.90;;;;;;4988979;28;20049;-73
2024/04/02 09:49:27;;;;;;;6.80;1.05;;;11.60;99.90;;;;;;5021515;28;20107;-73
2024/04/02 09:51:53;;;;;;;2.20;1.00;;;11.70;99.90;;;;;;5018498;28;20142;-67
2024/04/02 09:54:20;;;;;;;2.78;0.85;;;11.90;99.90;;;;;;5004016;28;20503;-73
2024/04/02 09:56:46;;;;;;;6.70;0.80;;;12.00;99.90;;;;;;5020324;28;20053;-72
2024/04/02 09:59:12;;;;;;;6.70;1.58;;;12.10;99.90;;;;;;5017015;28;20510;-71
2024/04/02 10:01:39;;;;;;;32.08;4.32;;;12.20;99.90;;;;;;5001025;28;20053;-71
2024/04/02 10:04:05;;;;;;;5.00;1.15;;;12.00;99.90;;;;;;5003764;28;20064;-71
2024/04/02 10:06:35;;;;;;;62.65;5.70;;;11.90;99.90;;;;;;5019839;28;20053;-72
2024/04/02 10:09:07;;;;;;;21.88;2.95;;;11.90;99.90;;;;;;5023530;28;20107;-72
2024/04/02 10:11:36;;;;;;;7.57;1.13;;;12.10;99.90;;;;;;5002341;28;20041;-72
2024/04/02 10:14:09;;;;;;;30.77;3.10;;;12.20;99.90;;;;;;5020061;28;20505;-73
2024/04/02 10:16:39;;;;;;;7.13;1.30;;;12.30;99.90;;;;;;5005095;28;20045;-73
2024/04/02 10:19:05;;;;;;;23.52;2.88;;;12.50;99.90;;;;;;5019506;28;20393;-70
2024/04/02 10:21:32;;;;;;;3.40;1.05;;;12.60;99.90;;;;;;5023372;28;20048;-70
2024/04/02 10:23:58;;;;;;;4.28;0.95;;;12.70;99.90;;;;;;5020305;28;20590;-70
2024/04/02 10:26:29;;;;;;;17.77;2.42;;;12.60;99.90;;;;;;5023004;28;20044;-71
2024/04/02 10:28:55;;;;;;;1.15;0.70;;;12.70;99.90;;;;;;5024222;28;20059;-71
2024/04/02 10:31:21;;;;;;;6.28;1.15;;;12.60;99.90;;;;;;5023156;28;20049;-69
2024/04/02 10:33:52;;;;;;;2.80;1.10;;;12.60;99.90;;;;;;5039215;28;20129;-69
2024/04/02 10:36:18;;;;;;;6.90;0.90;;;12.70;99.90;;;;;;5023307;28;20061;-70
2024/04/02 10:38:44;;;;;;;3.65;0.98;;;12.70;99.90;;;;;;5020051;28;20427;-70
2024/04/02 10:41:11;;;;;;;2.22;1.15;;;12.70;99.90;;;;;;5020983;28;20049;-70
2024/04/02 10:43:37;;;;;;;7.53;1.08;;;12.70;99.90;;;;;;5018770;28;20431;-70
2024/04/02 10:46:03;;;;;;;3.75;1.80;;;12.70;99.90;;;;;;5022643;28;20045;-70
2024/04/02 10:48:29;;;;;;;4.43;0.90;;;12.80;99.90;;;;;;5021725;28;20735;-71
2024/04/02 10:50:54;;;;;;;4.75;1.08;;;12.90;99.90;;;;;;5006211;28;20075;-70
2024/04/02 10:53:20;;;;;;;3.88;1.20;;;12.90;99.90;;;;;;5022354;28;20053;-70
2024/04/02 10:55:46;;;;;;;1.75;0.88;;;13.10;99.90;;;;;;5024377;28;20060;-69
2024/04/02 10:58:14;;;;;;;26.15;2.83;;;13.30;99.90;;;;;;4992245;28;20149;-70
2024/04/02 11:00:39;;;;;;;13.05;1.73;;;13.30;99.90;;;;;;5002163;28;20058;-69
2024/04/02 11:03:05;;;;;;;1.50;0.57;;;13.50;99.90;;;;;;5005248;28;20510;-70
2024/04/02 11:05:31;;;;;;;3.25;0.82;;;13.50;99.90;;;;;;5021133;28;20091;-70
2024/04/02 11:07:57;;;;;;;3.95;0.68;;;13.60;99.90;;;;;;5025767;28;20104;-71
2024/04/02 11:10:23;;;;;;;0.98;0.70;;;13.70;99.90;;;;;;5017482;28;20049;-71
2024/04/02 11:12:49;;;;;;;3.63;0.75;;;13.80;99.90;;;;;;5001877;28;20719;-69
2024/04/02 11:15:15;;;;;;;1.77;0.73;;;13.60;99.90;;;;;;4998657;28;20041;-70
2024/04/02 11:17:42;;;;;;;1.52;0.80;;;13.60;99.90;;;;;;5012005;28;20053;-70
2024/04/02 11:20:11;;;;;;;1.80;0.63;;;13.70;99.90;;;;;;5010832;28;20053;-70
2024/04/02 11:25:21;;;;;;;2.00;0.70;;;14.00;99.90;;;;;;5009815;28;20052;-71
2024/04/02 11:27:47;;;;;;;1.38;0.50;;;14.20;99.90;;;;;;5025682;28;20492;-70
2024/04/02 11:30:15;;;;;;;2.70;0.52;;;14.30;99.90;;;;;;5027177;28;20061;-70
2024/04/02 11:32:41;;;;;;;8.98;1.98;;;14.30;99.90;;;;;;5013204;28;20557;-70
2024/04/02 11:35:14;;;;;;;8.63;0.88;;;14.30;99.90;;;;;;5020754;28;20056;-71
2024/04/02 11:37:41;;;;;;;;;;;14.40;99.90;;;;;;5002299;28;20049;-70
2024/04/02 11:40:08;;;;;;;5.10;0.55;;;14.30;99.90;;;;;;5033748;28;20726;-70
2024/04/02 11:42:33;;;;;;;1.02;0.43;;;14.30;99.90;;;;;;5026966;28;20048;-71
2024/04/02 11:45:03;;;;;;;1.05;0.55;;;14.30;99.90;;;;;;5024702;28;20053;-70
2024/04/02 11:47:33;;;;;;;1.50;0.70;;;14.30;99.90;;;;;;5026062;28;20044;-71
2024/04/02 11:50:03;;;;;;;1.45;0.40;;;14.20;99.90;;;;;;5016908;28;20432;-71
2024/04/02 11:52:29;;;;;;;2.05;0.52;;;14.40;99.90;;;;;;5019860;28;20103;-70
2024/04/02 11:54:55;;;;;;;2.90;0.50;;;14.50;99.90;;;;;;5020089;28;20056;-71
2024/04/02 12:00:10;;;;;;;2.90;0.80;;;14.50;99.90;;;;;;5019512;28;20045;-71
2024/04/02 12:02:38;;;;;;;2.45;0.50;;;14.70;99.90;;;;;;5020387;28;20060;-71
2024/04/02 12:05:05;;;;;;;1.85;0.52;;;14.80;99.90;;;;;;5024166;28;20049;-71
2024/04/02 12:07:31;;;;;;;0.88;0.50;;;14.80;99.90;;;;;;5013551;28;20057;-70
2024/04/02 12:09:58;;;;;;;3.63;0.75;;;14.90;99.90;;;;;;5023365;28;20056;-70
2024/04/02 12:12:24;;;;;;;3.45;0.60;;;14.80;99.90;;;;;;5001748;28;20067;-71
2024/04/02 12:14:50;;;;;;;4.15;0.80;;;14.80;99.90;;;;;;5020438;28;20061;-71
2024/04/02 12:17:16;;;;;;;9.15;0.70;;;14.90;99.90;;;;;;5015652;28;20127;-70
2024/04/02 12:19:42;;;;;;;1.83;0.75;;;14.90;99.90;;;;;;5024030;28;20140;-70
2024/04/02 12:22:09;;;;;;;1.85;0.60;;;14.80;99.90;;;;;;5014531;28;20064;-71
2024/04/02 12:24:35;;;;;;;10.52;0.82;;;14.70;99.90;;;;;;5016178;28;20083;-71
2024/04/02 12:27:01;;;;;;;6.28;0.80;;;14.60;99.90;;;;;;5022436;28;20057;-70
2024/04/02 12:29:27;;;;;;;2.45;1.10;;;14.60;99.90;;;;;;5022626;28;20061;-70
2024/04/02 12:31:53;;;;;;;1.75;0.75;;;14.60;99.90;;;;;;5014101;28;20071;-72
2024/04/02 12:34:22;;;;;;;2.60;1.30;;;14.60;99.90;;;;;;5016287;28;20063;-73
2024/04/02 12:36:51;;;;;;;11.63;1.92;;;14.60;99.90;;;;;;5017899;28;20045;-72
2024/04/02 12:39:17;;;;;;;3.97;1.75;;;14.70;99.90;;;;;;5018953;28;20790;-72
2024/04/02 12:41:42;;;;;;;5.70;2.38;;;14.70;99.90;;;;;;5015621;28;20055;-72
2024/04/02 12:44:08;;;;;;;1.98;1.13;;;14.70;99.90;;;;;;5021903;28;20061;-73
2024/04/02 12:46:34;;;;;;;2.38;0.60;;;14.80;99.90;;;;;;5018824;28;20127;-72
2024/04/02 12:49:06;;;;;;;3.00;0.68;;;14.90;99.90;;;;;;5009852;28;20484;-73